createdAt,value
2022-09-26T00:01:43.646Z,10.50
2022-09-26T00:04:18.471Z,10.50
2022-09-26T00:06:49.803Z,10.50
2022-09-26T00:09:19.897Z,10.50
2022-09-26T00:11:48.478Z,10.50
2022-09-26T00:14:20.997Z,10.50
2022-09-26T00:16:49.401Z,10.50
2022-09-26T00:19:18.554Z,10.50
2022-09-26T00:21:46.837Z,10.50
2022-09-26T00:24:15.424Z,10.50
2022-09-26T00:26:45.251Z,10.60
2022-09-26T00:29:14.397Z,10.60
2022-09-26T00:31:47.510Z,10.50
2022-09-26T00:34:18.968Z,10.50
2022-09-26T00:36:47.271Z,10.60
2022-09-26T00:39:16.976Z,10.50
2022-09-26T00:41:46.885Z,10.50
2022-09-26T00:44:39.345Z,10.50
2022-09-26T00:47:22.071Z,10.50
2022-09-26T00:49:55.731Z,10.50
2022-09-26T00:52:28.272Z,10.50
2022-09-26T00:55:00.110Z,10.50
2022-09-26T00:57:34.701Z,10.60
2022-09-26T01:00:07.298Z,10.60
2022-09-26T01:02:36.450Z,10.60
2022-09-26T01:05:08.414Z,10.60
2022-09-26T01:07:36.944Z,10.70
2022-09-26T01:10:06.214Z,10.70
2022-09-26T01:12:37.921Z,10.70
2022-09-26T01:15:09.749Z,10.80
2022-09-26T01:17:41.342Z,10.70
2022-09-26T01:20:28.205Z,10.70
2022-09-26T01:23:53.651Z,10.70
2022-09-26T01:27:13.161Z,10.70
2022-09-26T01:30:07.623Z,10.70
2022-09-26T01:33:11.996Z,10.70
2022-09-26T01:36:21.106Z,10.70
2022-09-26T01:39:04.568Z,10.70
2022-09-26T01:41:49.542Z,10.70
2022-09-26T01:44:30.968Z,10.70
2022-09-26T01:47:09.398Z,10.70
2022-09-26T01:49:48.163Z,10.70
2022-09-26T01:52:24.042Z,10.70
2022-09-26T01:54:58.865Z,10.70
2022-09-26T01:57:32.789Z,10.70
2022-09-26T02:00:06.420Z,10.80
2022-09-26T02:02:42.325Z,10.80
2022-09-26T02:05:17.694Z,10.70
2022-09-26T02:07:54.763Z,10.80
2022-09-26T02:10:29.090Z,10.80
2022-09-26T02:13:06.072Z,10.80
2022-09-26T02:15:37.842Z,10.80
2022-09-26T02:18:16.445Z,10.80
2022-09-26T02:20:53.019Z,10.80
2022-09-26T02:23:21.934Z,10.80
2022-09-26T02:25:50.976Z,10.90
2022-09-26T02:28:19.328Z,10.90
2022-09-26T02:30:49.233Z,10.90
2022-09-26T02:33:19.185Z,10.90
2022-09-26T02:35:56.428Z,10.90
2022-09-26T02:38:27.142Z,10.90
2022-09-26T02:41:20.008Z,10.90
2022-09-26T02:44:36.008Z,10.90
2022-09-26T02:47:26.393Z,10.90
2022-09-26T02:50:24.461Z,10.80
2022-09-26T02:53:06.969Z,10.80
2022-09-26T02:55:47.246Z,10.90
2022-09-26T02:58:24.554Z,10.90
2022-09-26T03:01:00.760Z,10.80
2022-09-26T03:03:35.455Z,10.80
2022-09-26T03:06:09.583Z,10.80
2022-09-26T03:08:41.167Z,10.80
2022-09-26T03:11:11.775Z,10.80
2022-09-26T03:13:41.685Z,10.80
2022-09-26T03:16:12.457Z,10.80
2022-09-26T03:18:48.490Z,10.70
2022-09-26T03:21:18.595Z,10.80
2022-09-26T03:23:47.195Z,10.80
2022-09-26T03:26:20.484Z,10.70
2022-09-26T03:28:48.975Z,10.70
2022-09-26T03:31:17.462Z,10.80
2022-09-26T03:33:46.364Z,10.70
2022-09-26T03:36:14.867Z,10.80
2022-09-26T03:38:44.724Z,10.80
2022-09-26T03:41:12.982Z,10.80
2022-09-26T03:43:44.030Z,10.80
2022-09-26T03:46:13.019Z,10.80
2022-09-26T03:48:41.445Z,10.80
2022-09-26T03:51:13.153Z,10.80
2022-09-26T03:53:45.510Z,10.80
2022-09-26T03:56:16.418Z,10.80
2022-09-26T03:58:46.048Z,10.80
2022-09-26T04:01:17.282Z,10.80
2022-09-26T04:03:50.559Z,10.80
2022-09-26T04:06:21.240Z,10.80
2022-09-26T04:08:53.068Z,10.80
2022-09-26T04:11:24.722Z,10.80
2022-09-26T04:13:54.533Z,10.80
2022-09-26T04:16:24.440Z,10.70
2022-09-26T04:18:57.382Z,10.80
2022-09-26T04:21:27.176Z,10.80
2022-09-26T04:23:57.506Z,10.80
2022-09-26T04:26:25.887Z,10.80
2022-09-26T04:28:57.516Z,10.80
2022-09-26T04:31:27.786Z,10.80
2022-09-26T04:33:56.440Z,10.80
2022-09-26T04:36:25.200Z,10.80
2022-09-26T04:38:53.598Z,10.80
2022-09-26T04:41:23.651Z,10.80
2022-09-26T04:43:51.967Z,10.80
2022-09-26T04:46:29.626Z,10.80
2022-09-26T04:49:01.384Z,10.80
2022-09-26T04:51:32.902Z,10.80
2022-09-26T04:54:01.351Z,10.80
2022-09-26T04:56:31.223Z,10.80
2022-09-26T04:59:00.719Z,10.90
2022-09-26T05:01:29.200Z,10.90
2022-09-26T05:03:57.630Z,10.80
2022-09-26T05:06:26.548Z,10.80
2022-09-26T05:08:55.124Z,10.90
2022-09-26T05:11:23.373Z,10.80
2022-09-26T05:13:53.858Z,10.80
2022-09-26T05:16:23.994Z,10.80
2022-09-26T05:18:53.050Z,10.80
2022-09-26T05:21:21.367Z,10.80
2022-09-26T05:24:07.219Z,10.80
2022-09-26T05:26:42.759Z,10.80
2022-09-26T05:29:12.987Z,10.80
2022-09-26T05:31:41.893Z,10.80
2022-09-26T05:34:17.060Z,10.80
2022-09-26T05:36:47.691Z,10.80
2022-09-26T05:39:35.781Z,10.80
2022-09-26T05:42:07.396Z,10.80
2022-09-26T05:44:38.374Z,10.80
2022-09-26T05:47:07.369Z,10.70
2022-09-26T05:49:36.033Z,10.80
2022-09-26T05:52:04.440Z,10.80
2022-09-26T05:54:32.889Z,10.80
2022-09-26T05:57:01.199Z,10.70
2022-09-26T05:59:29.437Z,10.80
2022-09-26T06:01:59.399Z,10.80
2022-09-26T06:04:29.674Z,10.80
2022-09-26T06:06:57.914Z,10.80
2022-09-26T06:09:26.169Z,10.80
2022-09-26T06:11:54.420Z,10.80
2022-09-26T06:14:24.440Z,10.80
2022-09-26T06:16:52.773Z,10.90
2022-09-26T06:19:23.327Z,10.90
2022-09-26T06:21:51.974Z,10.90
2022-09-26T06:24:20.501Z,10.90
2022-09-26T06:26:48.950Z,10.90
2022-09-26T06:29:17.203Z,10.90
2022-09-26T06:31:46.374Z,10.90
2022-09-26T06:34:15.851Z,10.90
2022-09-26T06:36:46.943Z,10.90
2022-09-26T06:39:15.860Z,10.90
2022-09-26T06:41:44.365Z,10.90
2022-09-26T06:44:12.749Z,10.90
2022-09-26T06:46:41.086Z,10.80
2022-09-26T06:49:09.437Z,10.80
2022-09-26T06:51:38.239Z,10.80
2022-09-26T06:54:07.928Z,10.80
2022-09-26T06:56:36.227Z,10.80
2022-09-26T06:59:04.515Z,10.90
2022-09-26T07:01:33.282Z,10.90
2022-09-26T07:04:01.765Z,10.90
2022-09-26T07:06:30.330Z,10.90
2022-09-26T07:09:03.064Z,11.00
2022-09-26T07:11:56.137Z,11.00
2022-09-26T07:14:22.827Z,11.00
2022-09-26T07:16:52.089Z,11.00
2022-09-26T07:19:20.400Z,11.00
2022-09-26T07:21:49.537Z,11.00
2022-09-26T07:24:17.984Z,11.00
2022-09-26T07:26:47.634Z,11.00
2022-09-26T07:29:16.110Z,11.10
2022-09-26T07:31:44.590Z,11.00
2022-09-26T07:34:17.987Z,11.10
2022-09-26T07:36:47.429Z,11.00
2022-09-26T07:39:16.100Z,11.00
2022-09-26T07:41:46.126Z,11.10
2022-09-26T07:47:22.963Z,11.10
2022-09-26T07:50:08.492Z,11.10
2022-09-26T07:52:37.273Z,11.10
2022-09-26T07:55:06.241Z,11.10
2022-09-26T07:57:35.592Z,11.10
2022-09-26T08:00:06.280Z,11.20
2022-09-26T08:02:35.924Z,11.20
2022-09-26T08:05:08.403Z,11.30
2022-09-26T08:07:37.311Z,11.20
2022-09-26T08:10:07.960Z,11.30
2022-09-26T08:12:37.371Z,11.30
2022-09-26T08:15:09.348Z,11.30
2022-09-26T08:17:38.258Z,11.40
2022-09-26T08:20:08.476Z,11.50
2022-09-26T08:22:36.762Z,11.50
2022-09-26T08:25:06.894Z,11.50
2022-09-26T08:27:35.845Z,11.50
2022-09-26T08:30:04.972Z,11.50
2022-09-26T08:32:34.866Z,11.50
2022-09-26T08:35:03.255Z,11.50
2022-09-26T08:37:31.669Z,11.50
2022-09-26T08:40:00.906Z,11.40
2022-09-26T08:42:46.124Z,11.30
2022-09-26T08:45:50.650Z,11.30
2022-09-26T08:48:39.069Z,11.30
2022-09-26T08:51:16.545Z,11.20
2022-09-26T08:53:51.912Z,11.20
2022-09-26T08:56:26.433Z,11.20
2022-09-26T08:58:56.363Z,11.20
2022-09-26T09:01:28.314Z,11.20
2022-09-26T09:04:06.423Z,11.20
2022-09-26T09:06:35.726Z,11.20
2022-09-26T09:09:04.671Z,11.30
2022-09-26T09:11:54.111Z,11.40
2022-09-26T09:15:02.248Z,11.50
2022-09-26T09:17:48.076Z,11.60
2022-09-26T09:20:27.153Z,11.70
2022-09-26T09:23:21.137Z,11.70
2022-09-26T09:29:28.353Z,11.80
2022-09-26T09:31:58.261Z,11.80
2022-09-26T09:34:31.318Z,11.80
2022-09-26T09:37:07.559Z,11.90
2022-09-26T09:39:38.738Z,12.00
2022-09-26T09:42:14.194Z,12.10
2022-09-26T09:44:48.407Z,12.20
2022-09-26T09:47:18.427Z,12.30
2022-09-26T09:49:49.553Z,12.30
2022-09-26T09:52:34.152Z,12.40
2022-09-26T09:55:19.783Z,12.50
2022-09-26T09:58:12.584Z,12.50
2022-09-26T10:00:51.321Z,12.50
2022-09-26T10:03:27.511Z,12.50
2022-09-26T10:06:00.705Z,12.60
2022-09-26T10:08:34.240Z,12.70
2022-09-26T10:11:14.538Z,12.70
2022-09-26T10:13:44.901Z,12.80
2022-09-26T10:16:15.639Z,12.80
2022-09-26T10:19:03.599Z,12.90
2022-09-26T10:21:35.372Z,13.10
2022-09-26T10:24:06.713Z,13.20
2022-09-26T10:26:39.328Z,13.30
2022-09-26T10:29:23.072Z,13.30
2022-09-26T10:32:00.550Z,13.20
2022-09-26T10:34:31.028Z,13.20
2022-09-26T10:37:21.580Z,13.30
2022-09-26T10:40:13.829Z,13.30
2022-09-26T10:42:43.229Z,13.30
2022-09-26T10:45:17.552Z,13.30
2022-09-26T10:47:48.455Z,13.30
2022-09-26T10:50:20.093Z,13.30
2022-09-26T10:52:52.565Z,13.30
2022-09-26T10:55:28.365Z,13.30
2022-09-26T10:57:59.963Z,13.40
2022-09-26T11:00:39.230Z,13.50
2022-09-26T11:03:10.426Z,13.40
2022-09-26T11:06:00.390Z,13.40
2022-09-26T11:08:30.773Z,13.30
2022-09-26T11:11:04.163Z,13.30
2022-09-26T11:13:41.355Z,13.30
2022-09-26T11:16:13.410Z,13.20
2022-09-26T11:18:53.402Z,13.30
2022-09-26T11:21:30.046Z,13.20
2022-09-26T11:24:07.147Z,13.20
2022-09-26T11:26:49.351Z,13.00
2022-09-26T11:29:25.330Z,13.10
2022-09-26T11:31:57.118Z,13.10
2022-09-26T11:34:31.465Z,13.00
2022-09-26T11:37:36.591Z,13.00
2022-09-26T11:40:47.082Z,13.00
2022-09-26T11:43:36.247Z,13.10
2022-09-26T11:46:27.306Z,13.10
2022-09-26T11:49:13.272Z,13.00
2022-09-26T11:52:02.163Z,13.00
2022-09-26T11:55:00.684Z,13.00
2022-09-26T11:57:44.174Z,13.10
2022-09-26T12:00:24.535Z,13.10
2022-09-26T12:03:30.427Z,13.20
2022-09-26T12:06:08.993Z,13.20
2022-09-26T12:08:57.856Z,13.20
2022-09-26T12:11:38.083Z,13.20
2022-09-26T12:14:20.636Z,13.20
2022-09-26T12:16:58.704Z,13.10
2022-09-26T12:19:38.298Z,13.00
2022-09-26T12:22:30.855Z,13.00
2022-09-26T12:25:38.856Z,13.00
2022-09-26T12:28:27.052Z,12.80
2022-09-26T12:31:08.035Z,12.70
2022-09-26T12:34:16.162Z,12.70
2022-09-26T12:37:01.878Z,12.70
2022-09-26T12:40:05.427Z,12.60
2022-09-26T12:43:19.308Z,12.50
2022-09-26T12:46:39.161Z,12.40
2022-09-26T12:49:39.907Z,12.30
2022-09-26T12:52:26.548Z,12.30
2022-09-26T12:55:16.420Z,12.30
2022-09-26T12:58:01.733Z,12.30
2022-09-26T13:00:36.323Z,12.30
2022-09-26T13:03:46.896Z,12.30
2022-09-26T13:07:18.399Z,12.30
2022-09-26T13:10:18.672Z,12.30
2022-09-26T13:13:23.173Z,12.40
2022-09-26T13:16:08.168Z,12.40
2022-09-26T13:18:43.385Z,12.40
2022-09-26T13:21:15.721Z,12.40
2022-09-26T13:23:53.944Z,12.40
2022-09-26T13:26:29.067Z,12.30
2022-09-26T13:29:23.647Z,12.30
2022-09-26T13:31:58.859Z,12.30
2022-09-26T13:34:34.888Z,12.40
2022-09-26T13:37:09.932Z,12.40
2022-09-26T13:39:49.165Z,12.40
2022-09-26T13:42:22.236Z,12.50
2022-09-26T13:45:00.733Z,12.40
2022-09-26T13:47:39.876Z,12.30
2022-09-26T13:50:23.166Z,12.40
2022-09-26T13:53:07.605Z,12.30
2022-09-26T13:55:37.298Z,12.20
2022-09-26T13:58:21.545Z,12.20
2022-09-26T14:00:53.349Z,12.20
2022-09-26T14:03:43.215Z,12.20
2022-09-26T14:06:34.677Z,12.20
2022-09-26T14:09:24.124Z,12.20
2022-09-26T14:12:23.206Z,12.20
2022-09-26T14:15:20.907Z,12.20
2022-09-26T14:18:15.575Z,12.20
2022-09-26T14:21:07.312Z,12.20
2022-09-26T14:23:42.836Z,12.20
2022-09-26T14:26:22.068Z,12.20
2022-09-26T14:28:57.212Z,12.20
2022-09-26T14:31:40.591Z,12.20
2022-09-26T14:34:23.888Z,12.20
2022-09-26T14:36:54.422Z,12.20
2022-09-26T14:39:43.318Z,12.20
2022-09-26T14:42:23.465Z,12.20
2022-09-26T14:45:02.678Z,12.20
2022-09-26T14:47:40.582Z,12.20
2022-09-26T14:50:18.400Z,12.20
2022-09-26T14:52:52.768Z,12.10
2022-09-26T14:55:21.322Z,12.20
2022-09-26T14:57:49.672Z,12.20
2022-09-26T15:00:40.717Z,12.20
2022-09-26T15:03:16.074Z,12.20
2022-09-26T15:05:45.242Z,12.20
2022-09-26T15:08:25.463Z,12.20
2022-09-26T15:10:57.514Z,12.20
2022-09-26T15:13:38.751Z,12.20
2022-09-26T15:16:18.947Z,12.20
2022-09-26T15:18:51.283Z,12.20
2022-09-26T15:21:32.897Z,12.20
2022-09-26T15:24:04.330Z,12.20
2022-09-26T15:26:36.973Z,12.10
2022-09-26T15:29:08.872Z,12.10
2022-09-26T15:31:43.664Z,12.00
2022-09-26T15:34:16.856Z,12.00
2022-09-26T15:36:49.572Z,12.00
2022-09-26T15:39:42.858Z,12.00
2022-09-26T15:42:47.022Z,12.00
2022-09-26T15:45:27.195Z,12.00
2022-09-26T15:47:59.026Z,12.00
2022-09-26T15:50:34.454Z,11.90
2022-09-26T15:53:09.417Z,12.00
2022-09-26T15:55:46.457Z,11.90
2022-09-26T15:58:19.777Z,11.90
2022-09-26T16:00:52.463Z,11.90
2022-09-26T16:03:43.228Z,11.90
2022-09-26T16:06:25.309Z,11.90
2022-09-26T16:08:59.670Z,11.90
2022-09-26T16:11:28.705Z,11.80
2022-09-26T16:13:58.210Z,11.80
2022-09-26T16:16:32.041Z,11.80
2022-09-26T16:19:04.554Z,11.70
2022-09-26T16:21:36.608Z,11.70
2022-09-26T16:24:30.454Z,11.70
2022-09-26T16:26:59.365Z,11.70
2022-09-26T16:29:32.917Z,11.60
2022-09-26T16:32:01.806Z,11.50
2022-09-26T16:34:32.113Z,11.50
2022-09-26T16:37:00.568Z,11.50
2022-09-26T16:39:30.730Z,11.50
2022-09-26T16:42:03.430Z,11.50
2022-09-26T16:44:36.370Z,11.50
2022-09-26T16:47:29.100Z,11.50
2022-09-26T16:50:17.643Z,11.40
2022-09-26T16:52:45.970Z,11.40
2022-09-26T16:55:14.452Z,11.40
2022-09-26T16:57:52.486Z,11.40
2022-09-26T17:00:41.827Z,11.30
2022-09-26T17:03:22.177Z,11.40
2022-09-26T17:05:54.412Z,11.30
2022-09-26T17:08:22.933Z,11.30
2022-09-26T17:10:51.309Z,11.30
2022-09-26T17:13:23.047Z,11.30
2022-09-26T17:15:55.567Z,11.30
2022-09-26T17:18:29.022Z,11.30
2022-09-26T17:21:00.203Z,11.30
2022-09-26T17:23:39.856Z,11.30
2022-09-26T17:26:13.764Z,11.20
2022-09-26T17:28:43.567Z,11.20
2022-09-26T17:31:19.865Z,11.20
2022-09-26T17:33:51.493Z,11.20
2022-09-26T17:36:24.322Z,11.20
2022-09-26T17:38:53.478Z,11.20
2022-09-26T17:41:23.100Z,11.20
2022-09-26T17:43:59.957Z,11.20
2022-09-26T17:46:29.196Z,11.20
2022-09-26T17:48:59.259Z,11.20
2022-09-26T17:51:29.426Z,11.20
2022-09-26T17:53:57.699Z,11.20
2022-09-26T17:56:26.726Z,11.20
2022-09-26T17:58:57.013Z,11.20
2022-09-26T18:01:28.055Z,11.20
2022-09-26T18:03:59.880Z,11.20
2022-09-26T18:06:33.364Z,11.30
2022-09-26T18:09:10.162Z,11.30
2022-09-26T18:11:41.639Z,11.20
2022-09-26T18:14:15.677Z,11.30
2022-09-26T18:16:44.892Z,11.20
2022-09-26T18:19:13.297Z,11.20
2022-09-26T18:21:42.964Z,11.20
2022-09-26T18:24:19.795Z,11.20
2022-09-26T18:26:50.817Z,11.20
2022-09-26T18:29:27.753Z,11.20
2022-09-26T18:31:56.368Z,11.20
2022-09-26T18:34:25.919Z,11.30
2022-09-26T18:36:57.118Z,11.20
2022-09-26T18:39:26.089Z,11.20
2022-09-26T18:42:02.287Z,11.20
2022-09-26T18:44:35.199Z,11.20
2022-09-26T18:47:05.917Z,11.20
2022-09-26T18:49:36.963Z,11.20
2022-09-26T18:52:08.706Z,11.20
2022-09-26T18:54:38.084Z,11.20
2022-09-26T18:57:23.888Z,11.20
2022-09-26T18:59:52.148Z,11.20
2022-09-26T19:02:24.828Z,11.20
2022-09-26T19:04:53.820Z,11.20
2022-09-26T19:07:23.746Z,11.20
2022-09-26T19:09:52.325Z,11.20
2022-09-26T19:12:20.640Z,11.20
2022-09-26T19:14:48.925Z,11.20
2022-09-26T19:17:17.183Z,11.20
2022-09-26T19:19:45.488Z,11.20
2022-09-26T19:22:17.097Z,11.20
2022-09-26T19:24:50.453Z,11.20
2022-09-26T19:27:22.589Z,11.20
2022-09-26T19:29:58.962Z,11.10
2022-09-26T19:32:33.848Z,11.10
2022-09-26T19:35:04.740Z,11.10
2022-09-26T19:37:33.107Z,11.00
2022-09-26T19:40:02.979Z,11.10
2022-09-26T19:42:31.329Z,11.10
2022-09-26T19:44:59.565Z,11.00
2022-09-26T19:47:30.190Z,11.00
2022-09-26T19:49:58.576Z,11.00
2022-09-26T19:52:26.983Z,11.00
2022-09-26T19:54:55.203Z,11.00
2022-09-26T19:57:25.342Z,11.00
2022-09-26T19:59:53.575Z,11.00
2022-09-26T20:02:31.558Z,11.00
2022-09-26T20:05:00.046Z,11.00
2022-09-26T20:07:28.604Z,11.10
2022-09-26T20:09:58.473Z,11.00
2022-09-26T20:12:28.131Z,11.10
2022-09-26T20:14:56.390Z,11.00
2022-09-26T20:17:27.713Z,11.10
2022-09-26T20:19:59.099Z,11.10
2022-09-26T20:22:27.867Z,11.10
2022-09-26T20:24:56.913Z,11.00
2022-09-26T20:27:30.107Z,11.10
2022-09-26T20:30:16.133Z,11.00
2022-09-26T20:32:46.147Z,11.00
2022-09-26T20:35:15.961Z,11.10
2022-09-26T20:37:45.341Z,11.00
2022-09-26T20:40:19.400Z,11.10
2022-09-26T20:42:53.203Z,11.00
2022-09-26T20:45:29.721Z,11.00
2022-09-26T20:47:59.824Z,11.00
2022-09-26T20:50:34.232Z,11.00
2022-09-26T20:53:02.972Z,11.00
2022-09-26T20:55:32.423Z,11.00
2022-09-26T20:58:02.271Z,11.00
2022-09-26T21:00:32.358Z,11.00
2022-09-26T21:03:00.687Z,11.00
2022-09-26T21:05:29.073Z,10.90
2022-09-26T21:07:59.325Z,10.90
2022-09-26T21:10:30.686Z,10.90
2022-09-26T21:13:02.284Z,10.90
2022-09-26T21:15:33.513Z,10.90
2022-09-26T21:18:02.785Z,10.90
2022-09-26T21:20:33.792Z,10.90
2022-09-26T21:23:03.384Z,10.90
2022-09-26T21:25:33.294Z,10.90
2022-09-26T21:28:07.957Z,10.90
2022-09-26T21:30:36.284Z,10.90
2022-09-26T21:33:04.893Z,10.90
2022-09-26T21:35:33.683Z,10.90
2022-09-26T21:38:02.549Z,10.90
2022-09-26T21:40:34.421Z,11.00
2022-09-26T21:43:07.841Z,10.90
2022-09-26T21:45:36.148Z,10.90
2022-09-26T21:48:04.482Z,11.00
2022-09-26T21:50:32.825Z,11.00
2022-09-26T21:53:06.130Z,11.00
2022-09-26T21:55:38.945Z,10.90
2022-09-26T21:58:13.084Z,11.00
2022-09-26T22:00:41.872Z,11.00
2022-09-26T22:03:10.407Z,10.90
2022-09-26T22:05:38.711Z,10.90
2022-09-26T22:08:07.109Z,10.80
2022-09-26T22:10:35.376Z,10.80
2022-09-26T22:13:03.682Z,10.80
2022-09-26T22:15:33.372Z,10.80
2022-09-26T22:18:01.670Z,10.80
2022-09-26T22:20:29.885Z,10.80
2022-09-26T22:22:58.244Z,10.80
2022-09-26T22:25:26.584Z,10.80
2022-09-26T22:27:55.492Z,10.80
2022-09-26T22:30:23.922Z,10.80
2022-09-26T22:32:53.576Z,10.80
2022-09-26T22:35:22.022Z,10.80
2022-09-26T22:37:50.664Z,10.70
2022-09-26T22:40:19.003Z,10.70
2022-09-26T22:42:47.341Z,10.70
2022-09-26T22:45:15.777Z,10.70
2022-09-26T22:47:44.143Z,10.70
2022-09-26T22:50:13.760Z,10.70
2022-09-26T22:52:42.045Z,10.70
2022-09-26T22:55:10.701Z,10.60
2022-09-26T22:57:39.025Z,10.60
2022-09-26T23:00:09.467Z,10.60
2022-09-26T23:02:38.108Z,10.60
2022-09-26T23:05:07.232Z,10.60
2022-09-26T23:07:36.840Z,10.60
2022-09-26T23:10:05.359Z,10.60
2022-09-26T23:12:33.608Z,10.50
2022-09-26T23:15:01.835Z,10.50
2022-09-26T23:17:30.072Z,10.50
2022-09-26T23:19:58.640Z,10.50
2022-09-26T23:22:26.871Z,10.50
2022-09-26T23:24:56.528Z,10.50
2022-09-26T23:27:26.246Z,10.50
2022-09-26T23:29:55.336Z,10.50
2022-09-26T23:32:23.589Z,10.50
2022-09-26T23:34:51.845Z,10.50
2022-09-26T23:37:20.091Z,10.50
2022-09-26T23:39:48.333Z,10.40
2022-09-26T23:42:18.093Z,10.40
2022-09-26T23:44:46.340Z,10.40
2022-09-26T23:47:14.616Z,10.40
2022-09-26T23:49:42.820Z,10.40
2022-09-26T23:52:11.085Z,10.30
2022-09-26T23:54:39.276Z,10.30
2022-09-26T23:57:07.588Z,10.30
2022-09-26T23:59:37.381Z,10.30
